createdAt,value
2018-06-19T00:00:37.920Z,16.54
2018-06-19T00:01:37.944Z,16.54
2018-06-19T00:02:37.944Z,16.51
2018-06-19T00:03:37.951Z,16.48
2018-06-19T00:04:38.018Z,16.47
2018-06-19T00:05:37.908Z,16.47
2018-06-19T00:06:37.892Z,16.44
2018-06-19T00:07:37.888Z,16.43
2018-06-19T00:08:37.953Z,16.39
2018-06-19T00:09:37.969Z,16.39
2018-06-19T00:10:37.959Z,16.39
2018-06-19T00:11:37.964Z,16.39
2018-06-19T00:12:37.990Z,16.48
2018-06-19T00:13:37.956Z,16.50
2018-06-19T00:14:38.032Z,16.54
2018-06-19T00:15:38.033Z,16.55
2018-06-19T00:16:38.032Z,16.58
2018-06-19T00:17:37.927Z,16.59
2018-06-19T00:18:38.001Z,16.59
2018-06-19T00:19:37.999Z,16.58
2018-06-19T00:20:37.938Z,16.59
2018-06-19T00:21:37.968Z,16.61
2018-06-19T00:22:37.929Z,16.62
2018-06-19T00:23:37.997Z,16.63
2018-06-19T00:24:37.937Z,16.63
2018-06-19T00:25:37.999Z,16.63
2018-06-19T00:26:37.940Z,16.63
2018-06-19T00:27:38.003Z,16.63
2018-06-19T00:28:38.000Z,16.63
2018-06-19T00:29:37.940Z,16.66
2018-06-19T00:30:37.942Z,16.69
2018-06-19T00:31:38.009Z,16.70
2018-06-19T00:32:38.007Z,16.70
2018-06-19T00:33:38.014Z,16.73
2018-06-19T00:34:38.008Z,16.74
2018-06-19T00:35:38.008Z,16.76
2018-06-19T00:36:37.940Z,16.73
2018-06-19T00:37:38.009Z,16.72
2018-06-19T00:38:37.946Z,16.70
2018-06-19T00:39:38.020Z,16.70
2018-06-19T00:40:38.009Z,16.68
2018-06-19T00:41:38.015Z,16.63
2018-06-19T00:42:37.945Z,16.61
2018-06-19T00:43:38.020Z,16.55
2018-06-19T00:44:37.952Z,16.51
2018-06-19T00:45:37.946Z,16.46
2018-06-19T00:46:38.015Z,16.39
2018-06-19T00:47:38.043Z,16.33
2018-06-19T00:48:38.023Z,16.28
2018-06-19T00:49:37.989Z,16.22
2018-06-19T00:50:37.939Z,16.16
2018-06-19T00:51:37.919Z,16.09
2018-06-19T00:52:38.057Z,16.03
2018-06-19T00:53:37.915Z,15.95
2018-06-19T00:54:38.049Z,15.88
2018-06-19T00:55:37.955Z,15.84
2018-06-19T00:56:38.106Z,15.77
2018-06-19T00:57:37.981Z,15.72
2018-06-19T00:58:37.921Z,15.65
2018-06-19T00:59:37.991Z,15.59
2018-06-19T01:00:38.142Z,15.54
2018-06-19T01:01:37.989Z,15.51
2018-06-19T01:02:38.002Z,15.48
2018-06-19T01:03:38.044Z,15.47
2018-06-19T01:04:37.926Z,15.44
2018-06-19T01:05:37.946Z,15.46
2018-06-19T01:06:38.025Z,15.39
2018-06-19T01:07:38.030Z,15.35
2018-06-19T01:08:37.926Z,15.29
2018-06-19T01:09:38.063Z,15.26
2018-06-19T01:10:38.029Z,15.29
2018-06-19T01:11:38.034Z,15.28
2018-06-19T01:12:38.027Z,15.22
2018-06-19T01:13:38.002Z,15.22
2018-06-19T01:14:37.953Z,15.22
2018-06-19T01:15:38.036Z,15.26
2018-06-19T01:16:37.991Z,15.26
2018-06-19T01:17:37.995Z,15.31
2018-06-19T01:18:38.034Z,15.35
2018-06-19T01:19:37.978Z,15.35
2018-06-19T01:20:37.954Z,15.33
2018-06-19T01:21:38.067Z,15.32
2018-06-19T01:22:38.070Z,15.29
2018-06-19T01:23:38.076Z,15.29
2018-06-19T01:24:37.944Z,15.33
2018-06-19T01:25:37.962Z,15.32
2018-06-19T01:26:37.967Z,15.28
2018-06-19T01:27:38.025Z,15.22
2018-06-19T01:28:37.995Z,15.17
2018-06-19T01:29:38.056Z,15.13
2018-06-19T01:30:37.946Z,15.15
2018-06-19T01:31:38.103Z,15.11
2018-06-19T01:32:38.006Z,15.10
2018-06-19T01:33:38.047Z,15.06
2018-06-19T01:34:38.046Z,15.00
2018-06-19T01:35:38.046Z,14.94
2018-06-19T01:36:38.020Z,14.87
2018-06-19T01:37:38.047Z,14.86
2018-06-19T01:38:37.980Z,14.79
2018-06-19T01:39:38.049Z,14.76
2018-06-19T01:40:38.047Z,14.71
2018-06-19T01:41:38.051Z,14.66
2018-06-19T01:42:38.006Z,14.61
2018-06-19T01:43:38.055Z,14.54
2018-06-19T01:44:37.991Z,14.50
2018-06-19T01:45:38.014Z,14.44
2018-06-19T01:46:37.987Z,14.39
2018-06-19T01:47:38.049Z,14.35
2018-06-19T01:48:38.078Z,14.31
2018-06-19T01:49:37.957Z,14.27
2018-06-19T01:50:38.028Z,14.24
2018-06-19T01:51:37.993Z,14.22
2018-06-19T01:52:38.096Z,14.20
2018-06-19T01:53:38.025Z,14.17
2018-06-19T01:54:38.086Z,14.15
2018-06-19T01:55:38.119Z,14.13
2018-06-19T01:56:38.030Z,14.10
2018-06-19T01:57:38.059Z,14.07
2018-06-19T01:58:37.985Z,14.04
2018-06-19T01:59:38.083Z,14.03
2018-06-19T02:00:38.082Z,14.02
2018-06-19T02:01:38.026Z,13.98
2018-06-19T02:02:37.983Z,13.95
2018-06-19T02:03:38.102Z,13.92
2018-06-19T02:04:38.024Z,13.89
2018-06-19T02:05:38.069Z,13.86
2018-06-19T02:06:38.038Z,13.89
2018-06-19T02:07:38.054Z,13.93
2018-06-19T02:08:37.963Z,13.92
2018-06-19T02:09:37.966Z,13.92
2018-06-19T02:10:37.959Z,13.93
2018-06-19T02:11:38.066Z,13.95
2018-06-19T02:12:38.059Z,13.92
2018-06-19T02:13:37.950Z,13.89
2018-06-19T02:14:38.031Z,13.84
2018-06-19T02:15:37.950Z,13.80
2018-06-19T02:16:37.935Z,13.73
2018-06-19T02:17:37.982Z,13.69
2018-06-19T02:18:38.101Z,13.64
2018-06-19T02:19:38.097Z,13.59
2018-06-19T02:20:38.103Z,13.59
2018-06-19T02:21:38.055Z,13.56
2018-06-19T02:22:38.118Z,13.53
2018-06-19T02:23:38.038Z,13.50
2018-06-19T02:24:38.118Z,13.46
2018-06-19T02:25:38.115Z,13.42
2018-06-19T02:26:38.083Z,13.39
2018-06-19T02:27:38.119Z,13.36
2018-06-19T02:28:38.082Z,13.34
2018-06-19T02:29:37.987Z,13.31
2018-06-19T02:30:38.056Z,13.29
2018-06-19T02:31:38.083Z,13.29
2018-06-19T02:32:37.990Z,13.31
2018-06-19T02:33:38.069Z,13.34
2018-06-19T02:34:38.058Z,13.32
2018-06-19T02:35:38.128Z,13.28
2018-06-19T02:36:38.115Z,13.25
2018-06-19T02:37:38.007Z,13.23
2018-06-19T02:38:38.025Z,13.16
2018-06-19T02:39:38.010Z,13.12
2018-06-19T02:40:38.070Z,13.06
2018-06-19T02:41:38.055Z,13.02
2018-06-19T02:42:38.062Z,13.00
2018-06-19T02:43:38.164Z,12.98
2018-06-19T02:44:38.129Z,12.94
2018-06-19T02:45:37.993Z,12.87
2018-06-19T02:46:37.999Z,12.84
2018-06-19T02:47:38.032Z,12.82
2018-06-19T02:48:38.031Z,12.83
2018-06-19T02:49:38.098Z,12.79
2018-06-19T02:50:38.099Z,12.82
2018-06-19T02:51:38.005Z,12.84
2018-06-19T02:52:38.028Z,12.82
2018-06-19T02:53:38.030Z,12.82
2018-06-19T02:54:38.032Z,12.76
2018-06-19T02:55:38.101Z,12.76
2018-06-19T02:56:38.103Z,12.75
2018-06-19T02:57:38.070Z,12.73
2018-06-19T02:58:38.005Z,12.76
2018-06-19T02:59:38.039Z,12.72
2018-06-19T03:00:38.136Z,12.71
2018-06-19T03:01:38.027Z,12.71
2018-06-19T03:02:38.108Z,12.72
2018-06-19T03:03:38.010Z,12.73
2018-06-19T03:04:38.024Z,12.71
2018-06-19T03:05:38.083Z,12.72
2018-06-19T03:06:38.103Z,12.68
2018-06-19T03:07:38.045Z,12.68
2018-06-19T03:08:38.109Z,12.71
2018-06-19T03:09:38.106Z,12.71
2018-06-19T03:11:38.046Z,12.68
2018-06-19T03:12:38.042Z,12.65
2018-06-19T03:13:38.108Z,12.62
2018-06-19T03:14:38.046Z,12.61
2018-06-19T03:15:38.048Z,12.65
2018-06-19T03:16:38.049Z,12.72
2018-06-19T03:17:38.113Z,12.69
2018-06-19T03:18:38.020Z,12.66
2018-06-19T03:19:37.987Z,12.62
2018-06-19T03:20:38.099Z,12.60
2018-06-19T03:21:38.110Z,12.64
2018-06-19T03:22:38.068Z,12.61
2018-06-19T03:23:38.105Z,12.62
2018-06-19T03:24:38.099Z,12.64
2018-06-19T03:25:38.106Z,12.64
2018-06-19T03:26:38.003Z,12.65
2018-06-19T03:27:38.119Z,12.65
2018-06-19T03:28:38.059Z,12.62
2018-06-19T03:29:38.086Z,12.60
2018-06-19T03:30:38.099Z,12.60
2018-06-19T03:31:38.167Z,12.60
2018-06-19T03:32:38.145Z,12.57
2018-06-19T03:33:38.098Z,12.54
2018-06-19T03:34:38.160Z,12.51
2018-06-19T03:35:38.067Z,12.57
2018-06-19T03:36:38.096Z,12.62
2018-06-19T03:37:38.121Z,12.61
2018-06-19T03:38:38.149Z,12.60
2018-06-19T03:39:38.117Z,12.58
2018-06-19T03:40:37.998Z,12.64
2018-06-19T03:41:38.002Z,12.66
2018-06-19T03:42:38.116Z,12.65
2018-06-19T03:43:38.050Z,12.64
2018-06-19T03:44:38.122Z,12.61
2018-06-19T03:45:38.056Z,12.60
2018-06-19T03:46:38.010Z,12.58
2018-06-19T03:47:38.064Z,12.61
2018-06-19T03:48:38.067Z,12.64
2018-06-19T03:49:38.068Z,12.71
2018-06-19T03:50:38.154Z,12.75
2018-06-19T03:51:38.133Z,12.76
2018-06-19T03:52:38.135Z,12.79
2018-06-19T03:53:38.074Z,12.77
2018-06-19T03:54:38.133Z,12.79
2018-06-19T03:55:38.135Z,12.82
2018-06-19T03:56:38.131Z,12.83
2018-06-19T03:57:38.136Z,12.87
2018-06-19T03:58:38.108Z,12.96
2018-06-19T03:59:38.137Z,13.00
2018-06-19T04:00:38.097Z,13.05
2018-06-19T04:01:38.176Z,13.07
2018-06-19T04:02:38.162Z,13.13
2018-06-19T04:03:38.179Z,13.17
2018-06-19T04:04:38.175Z,13.21
2018-06-19T04:05:38.142Z,13.27
2018-06-19T04:06:38.112Z,13.32
2018-06-19T04:07:38.188Z,13.36
2018-06-19T04:08:38.145Z,13.40
2018-06-19T04:09:38.175Z,13.43
2018-06-19T04:10:38.116Z,13.49
2018-06-19T04:11:38.150Z,13.57
2018-06-19T04:12:38.173Z,13.66
2018-06-19T04:13:38.187Z,13.72
2018-06-19T04:14:38.117Z,13.80
2018-06-19T04:15:38.419Z,13.88
2018-06-19T04:16:38.173Z,13.98
2018-06-19T04:17:38.142Z,14.04
2018-06-19T04:18:38.021Z,14.11
2018-06-19T04:19:38.020Z,14.18
2018-06-19T04:20:38.045Z,14.22
2018-06-19T04:21:38.019Z,14.28
2018-06-19T04:22:38.060Z,14.33
2018-06-19T04:23:38.032Z,14.42
2018-06-19T04:24:38.221Z,14.51
2018-06-19T04:25:38.054Z,14.58
2018-06-19T04:26:38.094Z,14.66
2018-06-19T04:27:38.094Z,14.73
2018-06-19T04:28:38.091Z,14.79
2018-06-19T04:29:38.158Z,14.83
2018-06-19T04:30:38.159Z,14.86
2018-06-19T04:31:38.095Z,14.92
2018-06-19T04:32:38.172Z,14.98
2018-06-19T04:33:38.165Z,15.00
2018-06-19T04:34:38.097Z,15.04
2018-06-19T04:35:38.095Z,15.13
2018-06-19T04:36:38.167Z,15.15
2018-06-19T04:37:38.099Z,15.21
2018-06-19T04:38:38.041Z,15.26
2018-06-19T04:39:38.115Z,15.33
2018-06-19T04:40:38.146Z,15.39
2018-06-19T04:41:38.075Z,15.44
2018-06-19T04:42:38.033Z,15.50
2018-06-19T04:43:38.157Z,15.55
2018-06-19T04:44:38.097Z,15.59
2018-06-19T04:45:38.062Z,15.62
2018-06-19T04:46:38.064Z,15.66
2018-06-19T04:47:38.156Z,15.72
2018-06-19T04:48:38.172Z,15.79
2018-06-19T04:49:38.210Z,15.84
2018-06-19T04:50:38.079Z,15.87
2018-06-19T04:51:38.210Z,15.93
2018-06-19T04:52:38.079Z,15.95
2018-06-19T04:53:38.133Z,16.02
2018-06-19T04:54:38.084Z,16.05
2018-06-19T04:55:38.163Z,16.09
2018-06-19T04:56:38.082Z,16.09
2018-06-19T04:57:38.145Z,16.13
2018-06-19T04:58:38.184Z,16.16
2018-06-19T04:59:38.160Z,16.17
2018-06-19T05:00:38.150Z,16.21
2018-06-19T05:01:38.143Z,16.22
2018-06-19T05:02:38.083Z,16.20
2018-06-19T05:03:38.202Z,16.18
2018-06-19T05:04:38.140Z,16.21
2018-06-19T05:05:38.142Z,16.25
2018-06-19T05:06:38.179Z,16.29
2018-06-19T05:07:38.210Z,16.32
2018-06-19T05:08:38.118Z,16.35
2018-06-19T05:09:38.122Z,16.35
2018-06-19T05:10:38.191Z,16.36
2018-06-19T05:11:38.224Z,16.36
2018-06-19T05:12:38.126Z,16.36
2018-06-19T05:13:38.189Z,16.36
2018-06-19T05:14:38.213Z,16.39
2018-06-19T05:15:38.190Z,16.41
2018-06-19T05:16:38.192Z,16.41
2018-06-19T05:17:38.198Z,16.43
2018-06-19T05:18:38.129Z,16.44
2018-06-19T05:19:38.096Z,16.44
2018-06-19T05:20:38.137Z,16.44
2018-06-19T05:21:38.185Z,16.43
2018-06-19T05:22:38.064Z,16.43
2018-06-19T05:23:38.145Z,16.41
2018-06-19T05:24:38.182Z,16.43
2018-06-19T05:25:38.181Z,16.46
2018-06-19T05:26:38.152Z,16.46
2018-06-19T05:27:38.133Z,16.46
2018-06-19T05:28:38.119Z,16.46
2018-06-19T05:29:38.132Z,16.47
2018-06-19T05:30:38.085Z,16.48
2018-06-19T05:31:38.192Z,16.51
2018-06-19T05:32:38.099Z,16.51
2018-06-19T05:33:38.192Z,16.54
2018-06-19T05:34:38.111Z,16.54
2018-06-19T05:35:38.071Z,16.58
2018-06-19T05:36:38.155Z,16.61
2018-06-19T05:37:38.092Z,16.63
2018-06-19T05:38:38.176Z,16.65
2018-06-19T05:39:38.234Z,16.68
2018-06-19T05:40:38.244Z,16.72
2018-06-19T05:41:38.209Z,16.76
2018-06-19T05:42:38.223Z,16.77
2018-06-19T05:43:38.243Z,16.76
2018-06-19T05:44:38.231Z,16.77
2018-06-19T05:45:38.162Z,16.79
2018-06-19T05:46:38.212Z,16.85
2018-06-19T05:47:38.208Z,16.85
2018-06-19T05:48:38.189Z,16.90
2018-06-19T05:49:38.184Z,16.92
2018-06-19T05:50:38.244Z,16.95
2018-06-19T05:51:38.191Z,16.97
2018-06-19T05:52:38.178Z,16.99
2018-06-19T05:53:38.158Z,17.02
2018-06-19T05:54:38.158Z,17.03
2018-06-19T05:55:38.181Z,17.08
2018-06-19T05:56:38.183Z,17.12
2018-06-19T05:57:38.216Z,17.14
2018-06-19T05:58:38.217Z,17.20
2018-06-19T05:59:38.155Z,17.22
2018-06-19T06:00:38.217Z,17.24
2018-06-19T06:01:38.181Z,17.26
2018-06-19T06:02:38.243Z,17.31
2018-06-19T06:03:38.222Z,17.32
2018-06-19T06:04:38.151Z,17.36
2018-06-19T06:05:38.290Z,17.36
2018-06-19T06:06:38.158Z,17.39
2018-06-19T06:07:38.222Z,17.42
2018-06-19T06:08:38.159Z,17.44
2018-06-19T06:09:38.159Z,17.46
2018-06-19T06:10:38.223Z,17.50
2018-06-19T06:11:38.237Z,17.53
2018-06-19T06:12:38.232Z,17.54
2018-06-19T06:13:38.163Z,17.58
2018-06-19T06:14:38.228Z,17.62
2018-06-19T06:15:38.177Z,17.66
2018-06-19T06:16:38.316Z,17.68
2018-06-19T06:17:38.237Z,17.68
2018-06-19T06:18:38.139Z,17.68
2018-06-19T06:19:38.121Z,17.71
2018-06-19T06:20:38.140Z,17.73
2018-06-19T06:21:38.234Z,17.80
2018-06-19T06:22:38.142Z,17.88
2018-06-19T06:23:38.182Z,17.94
2018-06-19T06:24:38.227Z,17.99
2018-06-19T06:25:38.221Z,17.98
2018-06-19T06:26:38.229Z,18.00
2018-06-19T06:27:38.105Z,18.00
2018-06-19T06:28:38.148Z,18.03
2018-06-19T06:29:38.243Z,18.05
2018-06-19T06:30:38.205Z,18.13
2018-06-19T06:31:38.223Z,18.18
2018-06-19T06:32:38.148Z,18.20
2018-06-19T06:33:38.142Z,18.20
2018-06-19T06:34:38.164Z,18.25
2018-06-19T06:35:38.243Z,18.29
2018-06-19T06:36:38.148Z,18.28
2018-06-19T06:37:38.114Z,18.29
2018-06-19T06:38:38.224Z,18.31
2018-06-19T06:39:38.274Z,18.32
2018-06-19T06:40:38.250Z,18.32
2018-06-19T06:41:38.186Z,18.36
2018-06-19T06:42:38.167Z,18.40
2018-06-19T06:43:38.246Z,18.38
2018-06-19T06:44:38.212Z,18.41
2018-06-19T06:45:38.262Z,18.44
2018-06-19T06:46:38.148Z,18.50
2018-06-19T06:47:38.271Z,18.59
2018-06-19T06:48:38.211Z,18.65
2018-06-19T06:49:38.195Z,18.68
2018-06-19T06:50:38.148Z,18.79
2018-06-19T06:51:38.116Z,18.88
2018-06-19T06:52:38.148Z,18.94
2018-06-19T06:53:38.147Z,19.03
2018-06-19T06:54:38.216Z,19.15
2018-06-19T06:55:38.241Z,19.17
2018-06-19T06:56:38.238Z,19.20
2018-06-19T06:57:38.130Z,19.27
2018-06-19T06:58:38.225Z,19.25
2018-06-19T06:59:38.224Z,19.20
2018-06-19T07:00:38.285Z,19.17
2018-06-19T07:01:38.255Z,19.10
2018-06-19T07:02:38.290Z,19.06
2018-06-19T07:03:38.221Z,19.09
2018-06-19T07:04:38.264Z,19.13
2018-06-19T07:05:38.235Z,19.19
2018-06-19T07:06:38.234Z,19.20
2018-06-19T07:07:38.362Z,19.15
2018-06-19T07:08:38.164Z,19.06
2018-06-19T07:09:38.287Z,19.01
2018-06-19T07:10:38.225Z,18.88
2018-06-19T07:11:38.270Z,18.73
2018-06-19T07:12:38.288Z,18.69
2018-06-19T07:13:38.171Z,18.68
2018-06-19T07:14:38.229Z,18.68
2018-06-19T07:15:38.304Z,18.73
2018-06-19T07:16:38.176Z,18.76
2018-06-19T07:17:38.298Z,18.79
2018-06-19T07:18:38.272Z,18.83
2018-06-19T07:19:38.301Z,18.81
2018-06-19T07:20:38.247Z,18.80
2018-06-19T07:21:38.175Z,18.81
2018-06-19T07:22:38.308Z,18.86
2018-06-19T07:23:38.176Z,18.87
2018-06-19T07:24:38.275Z,18.92
2018-06-19T07:25:38.186Z,18.88
2018-06-19T07:26:38.299Z,18.94
2018-06-19T07:27:38.175Z,18.92
2018-06-19T07:28:38.314Z,18.88
2018-06-19T07:29:38.298Z,18.84
2018-06-19T07:30:38.248Z,18.79
2018-06-19T07:31:38.180Z,18.77
2018-06-19T07:32:38.223Z,18.77
2018-06-19T07:33:38.233Z,18.81
2018-06-19T07:34:38.241Z,18.86
2018-06-19T07:35:38.259Z,18.90
2018-06-19T07:36:38.315Z,18.94
2018-06-19T07:37:38.298Z,18.94
2018-06-19T07:38:38.228Z,19.01
2018-06-19T07:39:38.278Z,19.05
2018-06-19T07:40:38.235Z,19.03
2018-06-19T07:41:38.269Z,19.09
2018-06-19T07:42:38.187Z,19.15
2018-06-19T07:43:38.216Z,19.21
2018-06-19T07:44:38.254Z,19.25
2018-06-19T07:45:38.276Z,19.19
2018-06-19T07:46:38.291Z,19.15
2018-06-19T07:47:38.324Z,19.13
2018-06-19T07:48:38.226Z,19.20
2018-06-19T07:49:38.226Z,19.21
2018-06-19T07:50:38.294Z,19.24
2018-06-19T07:51:38.290Z,19.25
2018-06-19T07:52:38.224Z,19.28
2018-06-19T07:53:38.295Z,19.36
2018-06-19T07:54:38.232Z,19.40
2018-06-19T07:55:38.334Z,19.38
2018-06-19T07:56:38.297Z,19.38
2018-06-19T07:57:38.235Z,19.46
2018-06-19T07:58:38.247Z,19.47
2018-06-19T07:59:38.302Z,19.53
2018-06-19T08:00:38.237Z,19.58
2018-06-19T08:01:38.234Z,19.68
2018-06-19T08:02:38.256Z,19.76
2018-06-19T08:03:38.237Z,19.88
2018-06-19T08:04:38.189Z,20.01
2018-06-19T08:05:38.257Z,20.05
2018-06-19T08:06:38.209Z,20.14
2018-06-19T08:07:38.212Z,20.20
2018-06-19T08:08:38.304Z,20.27
2018-06-19T08:09:38.237Z,20.39
2018-06-19T08:10:38.240Z,20.47
2018-06-19T08:11:38.306Z,20.46
2018-06-19T08:12:38.241Z,20.39
2018-06-19T08:13:38.308Z,20.35
2018-06-19T08:14:38.289Z,20.38
2018-06-19T08:15:38.248Z,20.42
2018-06-19T08:16:38.307Z,20.47
2018-06-19T08:17:38.247Z,20.49
2018-06-19T08:18:38.176Z,20.45
2018-06-19T08:19:38.289Z,20.52
2018-06-19T08:20:38.261Z,20.46
2018-06-19T08:21:38.292Z,20.47
2018-06-19T08:22:38.238Z,20.43
2018-06-19T08:23:38.268Z,20.47
2018-06-19T08:24:38.244Z,20.57
2018-06-19T08:25:38.299Z,20.69
2018-06-19T08:26:38.204Z,20.77
2018-06-19T08:27:38.183Z,20.86
2018-06-19T08:28:38.317Z,20.95
2018-06-19T08:29:38.255Z,20.97
2018-06-19T08:30:38.255Z,20.87
2018-06-19T08:31:38.320Z,20.77
2018-06-19T08:32:38.257Z,20.66
2018-06-19T08:33:38.320Z,20.60
2018-06-19T08:34:38.252Z,20.56
2018-06-19T08:35:38.255Z,20.54
2018-06-19T08:36:38.327Z,20.54
2018-06-19T08:37:38.256Z,20.56
2018-06-19T08:38:38.359Z,20.56
2018-06-19T08:39:38.226Z,20.52
2018-06-19T08:40:38.228Z,20.56
2018-06-19T08:41:38.288Z,20.45
2018-06-19T08:42:38.233Z,20.47
2018-06-19T08:43:38.287Z,20.49
2018-06-19T08:44:38.284Z,20.53
2018-06-19T08:45:38.361Z,20.54
2018-06-19T08:46:38.290Z,20.53
2018-06-19T08:47:38.237Z,20.50
2018-06-19T08:48:38.348Z,20.47
2018-06-19T08:49:38.301Z,20.58
2018-06-19T08:50:38.227Z,20.61
2018-06-19T08:51:38.352Z,20.75
2018-06-19T08:52:38.354Z,20.76
2018-06-19T08:53:38.253Z,20.84
2018-06-19T08:54:38.290Z,20.88
2018-06-19T08:55:38.407Z,20.86
2018-06-19T08:56:38.234Z,20.87
2018-06-19T08:57:38.237Z,20.91
2018-06-19T08:58:38.269Z,21.01
2018-06-19T08:59:38.343Z,21.01
2018-06-19T09:00:38.274Z,20.97
2018-06-19T09:01:38.341Z,20.91
2018-06-19T09:02:38.273Z,20.83
2018-06-19T09:03:38.277Z,20.73
2018-06-19T09:04:38.342Z,20.75
2018-06-19T09:05:38.352Z,20.73
2018-06-19T09:06:38.235Z,20.64
2018-06-19T09:07:38.344Z,20.54
2018-06-19T09:08:38.317Z,20.42
2018-06-19T09:09:38.296Z,20.35
2018-06-19T09:10:38.280Z,20.27
2018-06-19T09:11:38.346Z,20.20
2018-06-19T09:12:38.279Z,20.18
2018-06-19T09:13:38.284Z,20.17
2018-06-19T09:14:38.348Z,20.09
2018-06-19T09:15:38.285Z,20.09
2018-06-19T09:16:38.348Z,20.05
2018-06-19T09:17:38.289Z,20.01
2018-06-19T09:18:38.352Z,19.96
2018-06-19T09:19:38.288Z,19.92
2018-06-19T09:20:38.355Z,19.91
2018-06-19T09:21:38.238Z,19.90
2018-06-19T09:22:38.288Z,19.84
2018-06-19T09:23:38.354Z,19.80
2018-06-19T09:24:38.357Z,19.79
2018-06-19T09:25:38.315Z,19.70
2018-06-19T09:26:38.287Z,19.66
2018-06-19T09:27:38.317Z,19.65
2018-06-19T09:28:38.357Z,19.70
2018-06-19T09:29:38.293Z,19.66
2018-06-19T09:30:38.360Z,19.68
2018-06-19T09:31:38.374Z,19.65
2018-06-19T09:32:38.362Z,19.65
2018-06-19T09:33:38.359Z,19.64
2018-06-19T09:34:38.359Z,19.60
2018-06-19T09:35:38.298Z,19.62
2018-06-19T09:36:38.328Z,19.72
2018-06-19T09:37:38.362Z,19.70
2018-06-19T09:38:38.259Z,19.66
2018-06-19T09:39:38.304Z,19.76
2018-06-19T09:40:38.265Z,19.84
2018-06-19T09:41:38.254Z,19.90
2018-06-19T09:42:38.259Z,19.92
2018-06-19T09:43:38.344Z,19.99
2018-06-19T09:44:38.297Z,20.01
2018-06-19T09:45:38.261Z,20.02
2018-06-19T09:46:38.359Z,20.03
2018-06-19T09:47:38.352Z,19.96
2018-06-19T09:48:38.303Z,19.83
2018-06-19T09:49:38.411Z,19.77
2018-06-19T09:50:38.303Z,19.73
2018-06-19T09:51:38.370Z,19.64
2018-06-19T09:52:38.310Z,19.61
2018-06-19T09:53:38.454Z,19.60
2018-06-19T09:54:38.312Z,19.76
2018-06-19T09:55:38.326Z,19.96
2018-06-19T09:56:38.341Z,20.21
2018-06-19T09:57:38.376Z,20.35
2018-06-19T09:58:38.347Z,20.46
2018-06-19T09:59:38.344Z,20.54
2018-06-19T10:00:38.398Z,20.56
2018-06-19T10:01:38.319Z,20.65
2018-06-19T10:02:38.316Z,20.69
2018-06-19T10:03:38.280Z,20.79
2018-06-19T10:04:38.284Z,20.77
2018-06-19T10:05:38.440Z,20.82
2018-06-19T10:06:38.440Z,20.91
2018-06-19T10:07:38.364Z,21.04
2018-06-19T10:08:38.282Z,21.21
2018-06-19T10:09:38.389Z,21.22
2018-06-19T10:10:38.389Z,21.31
2018-06-19T10:11:38.316Z,21.35
2018-06-19T10:12:38.386Z,21.32
2018-06-19T10:13:38.321Z,21.32
2018-06-19T10:14:38.319Z,21.24
2018-06-19T10:15:38.320Z,21.27
2018-06-19T10:16:38.390Z,21.27
2018-06-19T10:17:38.389Z,21.21
2018-06-19T10:18:38.323Z,21.18
2018-06-19T10:19:38.365Z,21.16
2018-06-19T10:20:38.366Z,21.16
2018-06-19T10:21:38.431Z,21.02
2018-06-19T10:22:38.426Z,21.04
2018-06-19T10:23:38.365Z,21.08
2018-06-19T10:24:38.357Z,21.14
2018-06-19T10:25:38.294Z,21.16
2018-06-19T10:26:38.358Z,21.16
2018-06-19T10:27:38.363Z,21.09
2018-06-19T10:28:38.379Z,20.97
2018-06-19T10:29:38.347Z,20.86
2018-06-19T10:30:38.344Z,20.76
2018-06-19T10:31:38.388Z,20.80
2018-06-19T10:32:38.305Z,20.77
2018-06-19T10:33:38.380Z,20.84
2018-06-19T10:34:38.285Z,20.94
2018-06-19T10:35:38.384Z,21.04
2018-06-19T10:36:38.306Z,21.13
2018-06-19T10:37:38.352Z,21.25
2018-06-19T10:38:38.275Z,21.36
2018-06-19T10:39:38.336Z,21.49
2018-06-19T10:40:38.404Z,21.60
2018-06-19T10:41:38.403Z,21.61
2018-06-19T10:42:38.335Z,21.67
2018-06-19T10:43:38.411Z,21.75
2018-06-19T10:44:38.407Z,21.79
2018-06-19T10:45:38.416Z,21.82
2018-06-19T10:46:38.362Z,22.04
2018-06-19T10:47:38.344Z,22.27
2018-06-19T10:48:38.408Z,22.38
2018-06-19T10:49:38.390Z,22.50
2018-06-19T10:50:38.416Z,22.59
2018-06-19T10:51:38.409Z,22.80
2018-06-19T10:52:38.504Z,22.76
2018-06-19T10:53:38.354Z,22.61
2018-06-19T10:54:38.392Z,22.46
2018-06-19T10:55:38.433Z,22.56
2018-06-19T10:56:38.393Z,22.32
2018-06-19T10:57:38.395Z,22.28
2018-06-19T10:58:38.458Z,22.21
2018-06-19T10:59:38.419Z,22.36
2018-06-19T11:00:38.419Z,22.16
2018-06-19T11:01:38.395Z,22.10
2018-06-19T11:02:38.385Z,22.23
2018-06-19T11:03:38.454Z,22.28
2018-06-19T11:04:38.454Z,22.34
2018-06-19T11:05:38.394Z,22.25
2018-06-19T11:06:38.359Z,22.23
2018-06-19T11:07:38.449Z,22.10
2018-06-19T11:08:38.456Z,22.02
2018-06-19T11:09:38.372Z,22.01
2018-06-19T11:10:38.328Z,21.98
2018-06-19T11:11:38.427Z,21.90
2018-06-19T11:12:38.463Z,21.91
2018-06-19T11:13:38.427Z,21.68
2018-06-19T11:14:38.425Z,21.64
2018-06-19T11:15:38.451Z,21.49
2018-06-19T11:16:38.441Z,21.47
2018-06-19T11:17:38.383Z,21.45
2018-06-19T11:18:38.396Z,21.38
2018-06-19T11:19:38.362Z,21.39
2018-06-19T11:20:38.432Z,21.60
2018-06-19T11:21:38.366Z,21.64
2018-06-19T11:22:38.431Z,21.73
2018-06-19T11:23:38.367Z,21.89
2018-06-19T11:24:38.370Z,22.13
2018-06-19T11:25:38.453Z,22.21
2018-06-19T11:26:38.438Z,22.30
2018-06-19T11:27:38.369Z,22.34
2018-06-19T11:28:38.370Z,22.30
2018-06-19T11:29:38.438Z,22.24
2018-06-19T11:30:38.437Z,22.34
2018-06-19T11:31:38.470Z,22.45
2018-06-19T11:32:38.438Z,22.54
2018-06-19T11:33:38.377Z,22.53
2018-06-19T11:34:38.338Z,22.61
2018-06-19T11:35:38.441Z,22.46
2018-06-19T11:36:38.485Z,22.60
2018-06-19T11:37:38.468Z,22.63
2018-06-19T11:38:38.549Z,22.77
2018-06-19T11:39:38.348Z,22.77
2018-06-19T11:40:38.346Z,22.70
2018-06-19T11:41:38.447Z,22.80
2018-06-19T11:42:38.431Z,22.83
2018-06-19T11:43:38.438Z,22.83
2018-06-19T11:44:38.449Z,22.91
2018-06-19T11:45:38.354Z,23.05
2018-06-19T11:46:38.387Z,23.13
2018-06-19T11:47:38.359Z,23.22
2018-06-19T11:48:38.433Z,23.28
2018-06-19T11:49:38.382Z,23.04
2018-06-19T11:50:38.374Z,22.95
2018-06-19T11:51:38.360Z,23.06
2018-06-19T11:52:38.377Z,23.02
2018-06-19T11:53:38.410Z,23.04
2018-06-19T11:54:38.390Z,22.98
2018-06-19T11:55:38.431Z,22.94
2018-06-19T11:56:38.420Z,23.04
2018-06-19T11:57:38.390Z,23.08
2018-06-19T11:58:38.346Z,23.13
2018-06-19T11:59:38.421Z,23.15
2018-06-19T12:00:38.454Z,23.26
2018-06-19T12:01:38.501Z,23.28
2018-06-19T12:02:38.456Z,23.19
2018-06-19T12:03:38.434Z,23.08
2018-06-19T12:04:38.382Z,22.98
2018-06-19T12:05:38.390Z,22.87
2018-06-19T12:06:38.515Z,22.77
2018-06-19T12:07:38.517Z,22.77
2018-06-19T12:08:38.508Z,22.80
2018-06-19T12:09:38.402Z,23.04
2018-06-19T12:10:38.499Z,23.34
2018-06-19T12:11:38.371Z,23.41
2018-06-19T12:12:38.502Z,23.63
2018-06-19T12:13:38.434Z,23.69
2018-06-19T12:14:38.499Z,23.63
2018-06-19T12:15:38.444Z,23.68
2018-06-19T12:16:38.504Z,23.60
2018-06-19T12:17:38.453Z,23.57
2018-06-19T12:18:38.496Z,23.56
2018-06-19T12:19:38.400Z,23.42
2018-06-19T12:20:38.471Z,23.30
2018-06-19T12:21:38.405Z,23.13
2018-06-19T12:22:38.408Z,23.09
2018-06-19T12:23:38.476Z,23.13
2018-06-19T12:24:38.408Z,23.16
2018-06-19T12:25:38.406Z,23.28
2018-06-19T12:26:38.488Z,23.39
2018-06-19T12:27:38.410Z,23.49
2018-06-19T12:28:38.496Z,23.39
2018-06-19T12:29:38.462Z,23.35
2018-06-19T12:30:38.378Z,23.31
2018-06-19T12:31:38.501Z,23.38
2018-06-19T12:32:38.380Z,23.31
2018-06-19T12:33:38.446Z,23.24
2018-06-19T12:34:38.503Z,23.19
2018-06-19T12:35:38.452Z,23.30
2018-06-19T12:36:38.463Z,23.13
2018-06-19T12:37:38.383Z,23.08
2018-06-19T12:38:38.459Z,23.09
2018-06-19T12:39:38.508Z,23.11
2018-06-19T12:40:38.444Z,23.17
2018-06-19T12:41:38.435Z,23.23
2018-06-19T12:42:38.456Z,23.27
2018-06-19T12:43:38.454Z,23.19
2018-06-19T12:44:38.468Z,23.19
2018-06-19T12:45:38.450Z,23.11
2018-06-19T12:46:38.471Z,23.13
2018-06-19T12:47:38.526Z,23.22
2018-06-19T12:48:38.535Z,23.16
2018-06-19T12:49:38.425Z,23.30
2018-06-19T12:50:38.436Z,23.24
2018-06-19T12:51:38.498Z,23.26
2018-06-19T12:52:38.427Z,23.13
2018-06-19T12:53:38.499Z,22.98